Saint Elmo, Alabama
Current Conditions -  °F | °C
As of 1:56 PM on Thursday 23 Oct 2014 (Local Time) from KMOB Reporting Station
Few Clouds Few Clouds  
Wind Chill: 23°   Ceiling: Unl
Heat Index: 23°   Visibility: 10mi
Dew Point:   Wind: 7mph
Humidity: 37%   Direction: 30°NNE
Pressure: 30.06"   Gusts: NA
Location:  30.5°N, 88.25°W
Report Text: KMOB 231856Z 03006KT 10SM FEW060 FEW250 23/07 A3006 RMK AO2 SLP177 T02280072
Loading
Personal Weather Stations






























Interactive Weather Map
Tropical Storm Tracking
New forecast layout! Learn more

10-Day Weather Forecast

Advertisements
Track Severe Weather on mobile